sensor_id;sensor_type;location;lat;lon;timestamp;P1;durP1;ratioP1;P2;durP2;ratioP2
75542;SDS011;64129;53.508;10.476;2022-12-29T00:02:15;1.65;;;1.38;;
75542;SDS011;64129;53.508;10.476;2022-12-29T00:04:41;2.38;;;1.88;;
75542;SDS011;64129;53.508;10.476;2022-12-29T00:07:08;2.47;;;1.92;;
75542;SDS011;64129;53.508;10.476;2022-12-29T00:09:35;2.05;;;1.48;;
75542;SDS011;64129;53.508;10.476;2022-12-29T00:12:02;4.60;;;2.47;;
75542;SDS011;64129;53.508;10.476;2022-12-29T00:14:30;4.32;;;2.65;;
75542;SDS011;64129;53.508;10.476;2022-12-29T00:17:15;3.15;;;2.83;;
75542;SDS011;64129;53.508;10.476;2022-12-29T00:19:42;2.85;;;2.47;;
75542;SDS011;64129;53.508;10.476;2022-12-29T00:22:27;3.15;;;2.85;;
75542;SDS011;64129;53.508;10.476;2022-12-29T00:25:12;2.67;;;2.40;;
75542;SDS011;64129;53.508;10.476;2022-12-29T00:30:43;1.70;;;1.58;;
75542;SDS011;64129;53.508;10.476;2022-12-29T00:33:29;3.58;;;2.65;;
75542;SDS011;64129;53.508;10.476;2022-12-29T00:36:24;3.05;;;2.78;;
75542;SDS011;64129;53.508;10.476;2022-12-29T00:39:12;3.03;;;2.70;;
75542;SDS011;64129;53.508;10.476;2022-12-29T00:42:04;2.70;;;2.25;;
75542;SDS011;64129;53.508;10.476;2022-12-29T00:45:06;2.80;;;2.50;;
75542;SDS011;64129;53.508;10.476;2022-12-29T00:47:33;4.22;;;2.72;;
75542;SDS011;64129;53.508;10.476;2022-12-29T00:49:59;4.03;;;2.58;;
75542;SDS011;64129;53.508;10.476;2022-12-29T00:52:26;4.65;;;2.63;;
75542;SDS011;64129;53.508;10.476;2022-12-29T00:54:52;2.70;;;2.50;;
75542;SDS011;64129;53.508;10.476;2022-12-29T00:57:19;2.80;;;2.60;;
75542;SDS011;64129;53.508;10.476;2022-12-29T00:59:45;3.45;;;2.63;;
75542;SDS011;64129;53.508;10.476;2022-12-29T01:02:14;3.60;;;2.25;;
75542;SDS011;64129;53.508;10.476;2022-12-29T01:04:41;2.63;;;2.42;;
75542;SDS011;64129;53.508;10.476;2022-12-29T01:07:07;2.58;;;2.08;;
75542;SDS011;64129;53.508;10.476;2022-12-29T01:09:36;2.47;;;2.10;;
75542;SDS011;64129;53.508;10.476;2022-12-29T01:12:21;2.45;;;2.25;;
75542;SDS011;64129;53.508;10.476;2022-12-29T01:15:08;3.20;;;2.30;;
75542;SDS011;64129;53.508;10.476;2022-12-29T01:17:36;2.13;;;1.92;;
75542;SDS011;64129;53.508;10.476;2022-12-29T01:20:03;2.90;;;2.63;;
75542;SDS011;64129;53.508;10.476;2022-12-29T01:22:30;2.78;;;2.50;;
75542;SDS011;64129;53.508;10.476;2022-12-29T01:24:56;2.40;;;2.20;;
75542;SDS011;64129;53.508;10.476;2022-12-29T01:27:23;3.85;;;2.20;;
75542;SDS011;64129;53.508;10.476;2022-12-29T01:29:49;2.45;;;2.25;;
75542;SDS011;64129;53.508;10.476;2022-12-29T01:32:16;3.38;;;2.63;;
75542;SDS011;64129;53.508;10.476;2022-12-29T01:34:42;2.92;;;2.72;;
75542;SDS011;64129;53.508;10.476;2022-12-29T01:37:09;3.30;;;2.80;;
75542;SDS011;64129;53.508;10.476;2022-12-29T01:39:36;3.25;;;1.88;;
75542;SDS011;64129;53.508;10.476;2022-12-29T01:42:02;2.30;;;2.10;;
75542;SDS011;64129;53.508;10.476;2022-12-29T01:44:41;3.33;;;2.38;;
75542;SDS011;64129;53.508;10.476;2022-12-29T01:47:14;3.15;;;2.80;;
75542;SDS011;64129;53.508;10.476;2022-12-29T01:49:50;2.55;;;2.35;;
75542;SDS011;64129;53.508;10.476;2022-12-29T01:52:19;1.90;;;1.75;;
75542;SDS011;64129;53.508;10.476;2022-12-29T01:54:48;3.13;;;2.40;;
75542;SDS011;64129;53.508;10.476;2022-12-29T01:57:21;3.40;;;3.10;;
75542;SDS011;64129;53.508;10.476;2022-12-29T01:59:53;3.55;;;2.65;;
75542;SDS011;64129;53.508;10.476;2022-12-29T02:02:25;3.15;;;2.72;;
75542;SDS011;64129;53.508;10.476;2022-12-29T02:04:57;3.50;;;2.42;;
75542;SDS011;64129;53.508;10.476;2022-12-29T02:07:29;2.28;;;1.70;;
75542;SDS011;64129;53.508;10.476;2022-12-29T02:09:55;2.40;;;2.20;;
75542;SDS011;64129;53.508;10.476;2022-12-29T02:12:23;2.47;;;2.08;;
75542;SDS011;64129;53.508;10.476;2022-12-29T02:14:51;2.40;;;2.20;;
75542;SDS011;64129;53.508;10.476;2022-12-29T02:17:47;2.95;;;2.40;;
75542;SDS011;64129;53.508;10.476;2022-12-29T02:29:40;1.52;;;1.42;;
75542;SDS011;64129;53.508;10.476;2022-12-29T02:32:35;1.85;;;1.75;;
75542;SDS011;64129;53.508;10.476;2022-12-29T02:38:04;5.95;;;2.33;;
75542;SDS011;64129;53.508;10.476;2022-12-29T02:40:44;2.92;;;1.95;;
75542;SDS011;64129;53.508;10.476;2022-12-29T02:46:18;2.47;;;2.30;;
75542;SDS011;64129;53.508;10.476;2022-12-29T02:52:01;2.40;;;2.20;;
75542;SDS011;64129;53.508;10.476;2022-12-29T02:54:32;2.67;;;2.08;;
75542;SDS011;64129;53.508;10.476;2022-12-29T03:00:07;3.25;;;2.35;;
75542;SDS011;64129;53.508;10.476;2022-12-29T03:08:32;2.40;;;1.92;;
75542;SDS011;64129;53.508;10.476;2022-12-29T03:11:11;3.13;;;2.40;;
75542;SDS011;64129;53.508;10.476;2022-12-29T03:14:08;1.85;;;1.65;;
75542;SDS011;64129;53.508;10.476;2022-12-29T03:16:57;2.15;;;1.92;;
75542;SDS011;64129;53.508;10.476;2022-12-29T03:19:30;3.60;;;2.47;;
75542;SDS011;64129;53.508;10.476;2022-12-29T03:22:05;2.08;;;1.85;;
75542;SDS011;64129;53.508;10.476;2022-12-29T03:27:35;2.35;;;1.85;;
75542;SDS011;64129;53.508;10.476;2022-12-29T03:30:07;2.20;;;1.33;;
75542;SDS011;64129;53.508;10.476;2022-12-29T03:32:43;1.70;;;1.60;;
75542;SDS011;64129;53.508;10.476;2022-12-29T03:35:15;1.63;;;1.20;;
75542;SDS011;64129;53.508;10.476;2022-12-29T03:37:52;1.83;;;1.70;;
75542;SDS011;64129;53.508;10.476;2022-12-29T03:40:25;2.28;;;2.10;;
75542;SDS011;64129;53.508;10.476;2022-12-29T03:42:53;1.50;;;1.40;;
75542;SDS011;64129;53.508;10.476;2022-12-29T03:45:21;2.47;;;1.80;;
75542;SDS011;64129;53.508;10.476;2022-12-29T03:47:47;3.53;;;1.88;;
75542;SDS011;64129;53.508;10.476;2022-12-29T03:52:42;2.20;;;1.23;;
75542;SDS011;64129;53.508;10.476;2022-12-29T03:55:09;1.92;;;1.40;;
75542;SDS011;64129;53.508;10.476;2022-12-29T03:57:37;1.50;;;1.40;;
75542;SDS011;64129;53.508;10.476;2022-12-29T04:00:07;1.90;;;1.27;;
75542;SDS011;64129;53.508;10.476;2022-12-29T04:02:47;1.80;;;1.30;;
75542;SDS011;64129;53.508;10.476;2022-12-29T04:05:19;2.10;;;1.40;;
75542;SDS011;64129;53.508;10.476;2022-12-29T04:07:47;1.35;;;1.20;;
75542;SDS011;64129;53.508;10.476;2022-12-29T04:10:13;1.73;;;1.30;;
75542;SDS011;64129;53.508;10.476;2022-12-29T04:12:40;1.33;;;0.90;;
75542;SDS011;64129;53.508;10.476;2022-12-29T04:15:08;1.98;;;0.93;;
75542;SDS011;64129;53.508;10.476;2022-12-29T04:17:35;1.55;;;1.20;;
75542;SDS011;64129;53.508;10.476;2022-12-29T04:20:03;2.67;;;1.20;;
75542;SDS011;64129;53.508;10.476;2022-12-29T04:22:57;1.30;;;1.20;;
75542;SDS011;64129;53.508;10.476;2022-12-29T04:25:32;3.20;;;1.63;;
75542;SDS011;64129;53.508;10.476;2022-12-29T04:27:59;1.63;;;0.90;;
75542;SDS011;64129;53.508;10.476;2022-12-29T04:30:44;1.77;;;1.00;;
75542;SDS011;64129;53.508;10.476;2022-12-29T04:33:23;1.15;;;1.05;;
75542;SDS011;64129;53.508;10.476;2022-12-29T04:35:50;2.03;;;0.98;;
75542;SDS011;64129;53.508;10.476;2022-12-29T04:38:20;1.70;;;1.08;;
75542;SDS011;64129;53.508;10.476;2022-12-29T04:40:48;1.00;;;0.90;;
75542;SDS011;64129;53.508;10.476;2022-12-29T04:45:58;1.30;;;1.20;;
75542;SDS011;64129;53.508;10.476;2022-12-29T04:48:31;2.80;;;1.38;;
75542;SDS011;64129;53.508;10.476;2022-12-29T04:51:09;1.10;;;0.95;;
75542;SDS011;64129;53.508;10.476;2022-12-29T04:56:04;1.25;;;1.13;;
75542;SDS011;64129;53.508;10.476;2022-12-29T04:58:31;1.30;;;1.10;;
75542;SDS011;64129;53.508;10.476;2022-12-29T05:00:58;1.23;;;1.13;;
75542;SDS011;64129;53.508;10.476;2022-12-29T05:03:28;1.85;;;1.50;;
75542;SDS011;64129;53.508;10.476;2022-12-29T05:05:55;0.70;;;0.70;;
75542;SDS011;64129;53.508;10.476;2022-12-29T05:08:22;1.15;;;0.93;;
75542;SDS011;64129;53.508;10.476;2022-12-29T05:10:53;1.20;;;1.10;;
75542;SDS011;64129;53.508;10.476;2022-12-29T05:13:19;2.55;;;1.02;;
75542;SDS011;64129;53.508;10.476;2022-12-29T05:15:49;1.05;;;0.98;;
75542;SDS011;64129;53.508;10.476;2022-12-29T05:18:17;1.45;;;0.75;;
75542;SDS011;64129;53.508;10.476;2022-12-29T05:20:44;0.90;;;0.90;;
75542;SDS011;64129;53.508;10.476;2022-12-29T05:23:12;1.65;;;0.80;;
75542;SDS011;64129;53.508;10.476;2022-12-29T05:25:40;2.22;;;1.20;;
75542;SDS011;64129;53.508;10.476;2022-12-29T05:28:14;1.33;;;1.08;;
75542;SDS011;64129;53.508;10.476;2022-12-29T05:30:49;1.55;;;0.90;;
75542;SDS011;64129;53.508;10.476;2022-12-29T05:33:18;1.90;;;0.88;;
75542;SDS011;64129;53.508;10.476;2022-12-29T05:35:46;1.95;;;1.30;;
75542;SDS011;64129;53.508;10.476;2022-12-29T05:38:13;1.40;;;1.30;;
75542;SDS011;64129;53.508;10.476;2022-12-29T05:40:40;1.40;;;1.30;;
75542;SDS011;64129;53.508;10.476;2022-12-29T05:43:19;1.50;;;1.38;;
75542;SDS011;64129;53.508;10.476;2022-12-29T05:46:04;1.40;;;1.10;;
75542;SDS011;64129;53.508;10.476;2022-12-29T05:48:44;0.88;;;0.70;;
75542;SDS011;64129;53.508;10.476;2022-12-29T05:51:23;0.75;;;0.63;;
75542;SDS011;64129;53.508;10.476;2022-12-29T05:56:18;1.13;;;1.02;;
75542;SDS011;64129;53.508;10.476;2022-12-29T05:58:51;1.48;;;1.00;;
75542;SDS011;64129;53.508;10.476;2022-12-29T06:01:18;1.00;;;0.95;;
75542;SDS011;64129;53.508;10.476;2022-12-29T06:03:45;1.30;;;0.82;;
75542;SDS011;64129;53.508;10.476;2022-12-29T06:06:13;1.25;;;1.05;;
75542;SDS011;64129;53.508;10.476;2022-12-29T06:08:40;1.10;;;1.00;;
75542;SDS011;64129;53.508;10.476;2022-12-29T06:11:07;0.80;;;0.43;;
75542;SDS011;64129;53.508;10.476;2022-12-29T06:13:34;1.85;;;0.90;;
75542;SDS011;64129;53.508;10.476;2022-12-29T06:16:01;1.88;;;1.20;;
75542;SDS011;64129;53.508;10.476;2022-12-29T06:18:28;1.40;;;0.90;;
75542;SDS011;64129;53.508;10.476;2022-12-29T06:21:00;1.20;;;1.20;;
75542;SDS011;64129;53.508;10.476;2022-12-29T06:23:27;1.10;;;0.75;;
75542;SDS011;64129;53.508;10.476;2022-12-29T06:25:54;1.63;;;1.48;;
75542;SDS011;64129;53.508;10.476;2022-12-29T06:28:21;0.95;;;0.82;;
75542;SDS011;64129;53.508;10.476;2022-12-29T06:30:47;0.60;;;0.60;;
75542;SDS011;64129;53.508;10.476;2022-12-29T06:33:16;0.93;;;0.90;;
75542;SDS011;64129;53.508;10.476;2022-12-29T06:35:42;1.17;;;1.08;;
75542;SDS011;64129;53.508;10.476;2022-12-29T06:38:09;0.73;;;0.68;;
75542;SDS011;64129;53.508;10.476;2022-12-29T06:40:36;1.00;;;0.80;;
75542;SDS011;64129;53.508;10.476;2022-12-29T06:43:21;1.58;;;0.70;;
75542;SDS011;64129;53.508;10.476;2022-12-29T06:46:00;1.83;;;0.80;;
75542;SDS011;64129;53.508;10.476;2022-12-29T06:48:27;1.63;;;1.13;;
75542;SDS011;64129;53.508;10.476;2022-12-29T06:50:53;0.95;;;0.90;;
75542;SDS011;64129;53.508;10.476;2022-12-29T06:53:20;1.33;;;1.20;;
75542;SDS011;64129;53.508;10.476;2022-12-29T06:55:46;1.50;;;1.40;;
75542;SDS011;64129;53.508;10.476;2022-12-29T06:58:13;1.88;;;1.40;;
75542;SDS011;64129;53.508;10.476;2022-12-29T07:00:39;1.48;;;1.27;;
75542;SDS011;64129;53.508;10.476;2022-12-29T07:03:06;2.42;;;0.95;;
75542;SDS011;64129;53.508;10.476;2022-12-29T07:05:32;1.83;;;1.38;;
75542;SDS011;64129;53.508;10.476;2022-12-29T07:07:59;1.48;;;1.33;;
75542;SDS011;64129;53.508;10.476;2022-12-29T07:10:26;1.70;;;1.55;;
75542;SDS011;64129;53.508;10.476;2022-12-29T07:12:52;2.20;;;1.30;;
75542;SDS011;64129;53.508;10.476;2022-12-29T07:15:19;5.10;;;1.63;;
75542;SDS011;64129;53.508;10.476;2022-12-29T07:17:45;1.67;;;1.35;;
75542;SDS011;64129;53.508;10.476;2022-12-29T07:20:12;2.20;;;1.30;;
75542;SDS011;64129;53.508;10.476;2022-12-29T07:22:38;2.33;;;1.48;;
75542;SDS011;64129;53.508;10.476;2022-12-29T07:25:05;1.38;;;1.20;;
75542;SDS011;64129;53.508;10.476;2022-12-29T07:27:31;1.50;;;1.20;;
75542;SDS011;64129;53.508;10.476;2022-12-29T07:29:58;1.23;;;1.05;;
75542;SDS011;64129;53.508;10.476;2022-12-29T07:32:24;2.88;;;1.45;;
75542;SDS011;64129;53.508;10.476;2022-12-29T07:34:51;1.30;;;1.20;;
75542;SDS011;64129;53.508;10.476;2022-12-29T07:37:18;1.10;;;1.00;;
75542;SDS011;64129;53.508;10.476;2022-12-29T07:39:44;1.38;;;1.27;;
75542;SDS011;64129;53.508;10.476;2022-12-29T07:42:11;1.42;;;1.00;;
75542;SDS011;64129;53.508;10.476;2022-12-29T07:44:42;0.50;;;0.50;;
75542;SDS011;64129;53.508;10.476;2022-12-29T07:47:25;1.40;;;0.70;;
75542;SDS011;64129;53.508;10.476;2022-12-29T07:49:52;0.60;;;0.60;;
75542;SDS011;64129;53.508;10.476;2022-12-29T07:52:19;1.40;;;0.88;;
75542;SDS011;64129;53.508;10.476;2022-12-29T07:54:45;1.30;;;0.70;;
75542;SDS011;64129;53.508;10.476;2022-12-29T07:57:12;1.05;;;0.55;;
75542;SDS011;64129;53.508;10.476;2022-12-29T07:59:39;0.75;;;0.50;;
75542;SDS011;64129;53.508;10.476;2022-12-29T08:02:05;3.13;;;0.73;;
75542;SDS011;64129;53.508;10.476;2022-12-29T08:04:32;1.05;;;0.70;;
75542;SDS011;64129;53.508;10.476;2022-12-29T08:06:58;0.80;;;0.80;;
75542;SDS011;64129;53.508;10.476;2022-12-29T08:09:26;0.60;;;0.57;;
75542;SDS011;64129;53.508;10.476;2022-12-29T08:11:53;0.68;;;0.68;;
75542;SDS011;64129;53.508;10.476;2022-12-29T08:14:20;0.70;;;0.70;;
75542;SDS011;64129;53.508;10.476;2022-12-29T08:16:46;1.00;;;0.75;;
75542;SDS011;64129;53.508;10.476;2022-12-29T08:19:13;0.80;;;0.80;;
75542;SDS011;64129;53.508;10.476;2022-12-29T08:21:40;0.65;;;0.65;;
75542;SDS011;64129;53.508;10.476;2022-12-29T08:24:07;0.95;;;0.70;;
75542;SDS011;64129;53.508;10.476;2022-12-29T08:26:35;1.13;;;1.00;;
75542;SDS011;64129;53.508;10.476;2022-12-29T08:29:01;0.85;;;0.60;;
75542;SDS011;64129;53.508;10.476;2022-12-29T08:31:28;1.00;;;0.57;;
75542;SDS011;64129;53.508;10.476;2022-12-29T08:33:54;0.98;;;0.90;;
75542;SDS011;64129;53.508;10.476;2022-12-29T08:36:21;1.25;;;0.70;;
75542;SDS011;64129;53.508;10.476;2022-12-29T08:38:47;1.05;;;0.70;;
75542;SDS011;64129;53.508;10.476;2022-12-29T08:41:14;1.10;;;1.00;;
75542;SDS011;64129;53.508;10.476;2022-12-29T08:43:40;2.50;;;0.90;;
75542;SDS011;64129;53.508;10.476;2022-12-29T08:46:07;0.88;;;0.80;;
75542;SDS011;64129;53.508;10.476;2022-12-29T08:48:33;1.02;;;1.00;;
75542;SDS011;64129;53.508;10.476;2022-12-29T08:51:00;0.55;;;0.50;;
75542;SDS011;64129;53.508;10.476;2022-12-29T08:53:26;1.48;;;0.68;;
75542;SDS011;64129;53.508;10.476;2022-12-29T08:55:57;0.63;;;0.63;;
75542;SDS011;64129;53.508;10.476;2022-12-29T08:58:29;0.90;;;0.47;;
75542;SDS011;64129;53.508;10.476;2022-12-29T09:00:57;0.38;;;0.38;;
75542;SDS011;64129;53.508;10.476;2022-12-29T09:03:24;1.20;;;0.52;;
75542;SDS011;64129;53.508;10.476;2022-12-29T09:08:37;0.98;;;0.70;;
75542;SDS011;64129;53.508;10.476;2022-12-29T09:11:11;1.40;;;0.55;;
75542;SDS011;64129;53.508;10.476;2022-12-29T09:13:41;0.90;;;0.73;;
75542;SDS011;64129;53.508;10.476;2022-12-29T09:16:07;0.57;;;0.57;;
75542;SDS011;64129;53.508;10.476;2022-12-29T09:18:34;0.77;;;0.50;;
75542;SDS011;64129;53.508;10.476;2022-12-29T09:21:01;0.65;;;0.55;;
75542;SDS011;64129;53.508;10.476;2022-12-29T09:23:29;1.48;;;0.40;;
75542;SDS011;64129;53.508;10.476;2022-12-29T09:25:56;0.82;;;0.43;;
75542;SDS011;64129;53.508;10.476;2022-12-29T09:28:23;1.20;;;0.52;;
75542;SDS011;64129;53.508;10.476;2022-12-29T09:30:50;1.52;;;0.70;;
75542;SDS011;64129;53.508;10.476;2022-12-29T09:33:17;1.35;;;0.85;;
75542;SDS011;64129;53.508;10.476;2022-12-29T09:35:44;3.53;;;0.70;;
75542;SDS011;64129;53.508;10.476;2022-12-29T09:38:15;4.15;;;0.80;;
75542;SDS011;64129;53.508;10.476;2022-12-29T09:40:49;1.33;;;0.52;;
75542;SDS011;64129;53.508;10.476;2022-12-29T09:48:45;0.55;;;0.50;;
75542;SDS011;64129;53.508;10.476;2022-12-29T09:51:18;2.17;;;0.63;;
75542;SDS011;64129;53.508;10.476;2022-12-29T09:54:00;1.75;;;0.50;;
75542;SDS011;64129;53.508;10.476;2022-12-29T09:56:35;0.90;;;0.60;;
75542;SDS011;64129;53.508;10.476;2022-12-29T09:59:11;0.50;;;0.30;;
75542;SDS011;64129;53.508;10.476;2022-12-29T10:04:15;2.80;;;0.50;;
75542;SDS011;64129;53.508;10.476;2022-12-29T10:06:43;1.33;;;0.50;;
75542;SDS011;64129;53.508;10.476;2022-12-29T10:09:43;2.15;;;0.60;;
75542;SDS011;64129;53.508;10.476;2022-12-29T10:12:28;4.03;;;0.82;;
75542;SDS011;64129;53.508;10.476;2022-12-29T10:15:04;3.03;;;0.55;;
75542;SDS011;64129;53.508;10.476;2022-12-29T10:17:50;1.55;;;0.60;;
75542;SDS011;64129;53.508;10.476;2022-12-29T10:25:45;2.33;;;0.88;;
75542;SDS011;64129;53.508;10.476;2022-12-29T10:28:17;1.50;;;0.80;;
75542;SDS011;64129;53.508;10.476;2022-12-29T10:30:48;1.27;;;0.40;;
75542;SDS011;64129;53.508;10.476;2022-12-29T10:33:17;4.28;;;0.70;;
75542;SDS011;64129;53.508;10.476;2022-12-29T10:35:49;2.47;;;0.77;;
75542;SDS011;64129;53.508;10.476;2022-12-29T10:38:20;2.35;;;1.13;;
75542;SDS011;64129;53.508;10.476;2022-12-29T10:41:11;1.40;;;0.50;;
75542;SDS011;64129;53.508;10.476;2022-12-29T10:43:47;0.73;;;0.70;;
75542;SDS011;64129;53.508;10.476;2022-12-29T10:46:18;3.38;;;0.80;;
75542;SDS011;64129;53.508;10.476;2022-12-29T10:48:49;1.83;;;1.10;;
75542;SDS011;64129;53.508;10.476;2022-12-29T10:51:24;2.30;;;0.80;;
75542;SDS011;64129;53.508;10.476;2022-12-29T10:53:54;3.53;;;0.80;;
75542;SDS011;64129;53.508;10.476;2022-12-29T10:56:34;2.08;;;0.68;;
75542;SDS011;64129;53.508;10.476;2022-12-29T10:59:13;3.38;;;1.10;;
75542;SDS011;64129;53.508;10.476;2022-12-29T11:01:52;3.17;;;0.80;;
75542;SDS011;64129;53.508;10.476;2022-12-29T11:07:08;3.08;;;0.98;;
75542;SDS011;64129;53.508;10.476;2022-12-29T11:09:40;3.22;;;1.45;;
75542;SDS011;64129;53.508;10.476;2022-12-29T11:12:27;3.22;;;1.10;;
75542;SDS011;64129;53.508;10.476;2022-12-29T11:20:36;2.15;;;0.75;;
75542;SDS011;64129;53.508;10.476;2022-12-29T11:23:05;6.35;;;1.00;;
75542;SDS011;64129;53.508;10.476;2022-12-29T11:28:44;1.50;;;0.65;;
75542;SDS011;64129;53.508;10.476;2022-12-29T11:31:16;2.85;;;1.23;;
75542;SDS011;64129;53.508;10.476;2022-12-29T11:33:44;3.05;;;1.08;;
75542;SDS011;64129;53.508;10.476;2022-12-29T11:36:15;1.13;;;0.63;;
75542;SDS011;64129;53.508;10.476;2022-12-29T11:38:46;3.53;;;0.90;;
75542;SDS011;64129;53.508;10.476;2022-12-29T11:41:26;2.65;;;0.80;;
75542;SDS011;64129;53.508;10.476;2022-12-29T11:43:56;2.05;;;0.93;;
75542;SDS011;64129;53.508;10.476;2022-12-29T11:46:27;4.55;;;1.42;;
75542;SDS011;64129;53.508;10.476;2022-12-29T11:48:55;3.30;;;0.50;;
75542;SDS011;64129;53.508;10.476;2022-12-29T11:51:39;2.25;;;0.88;;
75542;SDS011;64129;53.508;10.476;2022-12-29T11:56:56;1.75;;;0.50;;
75542;SDS011;64129;53.508;10.476;2022-12-29T12:01:53;2.13;;;0.73;;
75542;SDS011;64129;53.508;10.476;2022-12-29T12:04:21;3.08;;;0.60;;
75542;SDS011;64129;53.508;10.476;2022-12-29T12:07:03;1.38;;;0.55;;
75542;SDS011;64129;53.508;10.476;2022-12-29T12:09:32;2.47;;;1.25;;
75542;SDS011;64129;53.508;10.476;2022-12-29T12:12:00;4.20;;;1.20;;
75542;SDS011;64129;53.508;10.476;2022-12-29T12:14:33;2.75;;;0.68;;
75542;SDS011;64129;53.508;10.476;2022-12-29T12:17:18;1.98;;;0.77;;
75542;SDS011;64129;53.508;10.476;2022-12-29T12:19:59;3.05;;;1.17;;
75542;SDS011;64129;53.508;10.476;2022-12-29T12:22:35;0.85;;;0.68;;
75542;SDS011;64129;53.508;10.476;2022-12-29T12:25:05;2.53;;;0.88;;
75542;SDS011;64129;53.508;10.476;2022-12-29T12:28:01;2.75;;;0.80;;
75542;SDS011;64129;53.508;10.476;2022-12-29T12:30:44;2.97;;;0.85;;
75542;SDS011;64129;53.508;10.476;2022-12-29T12:41:16;2.42;;;1.20;;
75542;SDS011;64129;53.508;10.476;2022-12-29T12:44:29;2.13;;;0.63;;
75542;SDS011;64129;53.508;10.476;2022-12-29T12:50:02;1.17;;;0.55;;
75542;SDS011;64129;53.508;10.476;2022-12-29T12:55:55;1.13;;;0.80;;
75542;SDS011;64129;53.508;10.476;2022-12-29T13:09:51;2.53;;;0.60;;
75542;SDS011;64129;53.508;10.476;2022-12-29T13:15:15;1.80;;;0.70;;
75542;SDS011;64129;53.508;10.476;2022-12-29T13:18:02;1.35;;;0.77;;
75542;SDS011;64129;53.508;10.476;2022-12-29T13:23:23;2.10;;;1.00;;
75542;SDS011;64129;53.508;10.476;2022-12-29T13:26:39;4.15;;;0.90;;
75542;SDS011;64129;53.508;10.476;2022-12-29T13:29:13;2.95;;;0.95;;
75542;SDS011;64129;53.508;10.476;2022-12-29T13:32:06;2.70;;;0.90;;
75542;SDS011;64129;53.508;10.476;2022-12-29T13:37:58;3.85;;;1.20;;
75542;SDS011;64129;53.508;10.476;2022-12-29T13:40:32;1.15;;;0.82;;
75542;SDS011;64129;53.508;10.476;2022-12-29T13:43:02;3.38;;;1.38;;
75542;SDS011;64129;53.508;10.476;2022-12-29T13:45:29;3.25;;;0.68;;
75542;SDS011;64129;53.508;10.476;2022-12-29T13:48:03;2.78;;;0.60;;
75542;SDS011;64129;53.508;10.476;2022-12-29T13:50:38;1.25;;;0.40;;
75542;SDS011;64129;53.508;10.476;2022-12-29T14:01:27;4.32;;;0.57;;
75542;SDS011;64129;53.508;10.476;2022-12-29T14:04:12;2.50;;;0.80;;
75542;SDS011;64129;53.508;10.476;2022-12-29T14:06:40;1.30;;;0.70;;
75542;SDS011;64129;53.508;10.476;2022-12-29T14:12:27;0.77;;;0.55;;
75542;SDS011;64129;53.508;10.476;2022-12-29T14:17:42;2.55;;;0.70;;
75542;SDS011;64129;53.508;10.476;2022-12-29T14:20:17;1.65;;;0.50;;
75542;SDS011;64129;53.508;10.476;2022-12-29T14:22:57;3.58;;;0.55;;
75542;SDS011;64129;53.508;10.476;2022-12-29T14:25:51;5.50;;;1.00;;
75542;SDS011;64129;53.508;10.476;2022-12-29T14:28:31;3.88;;;0.70;;
75542;SDS011;64129;53.508;10.476;2022-12-29T14:30:59;2.42;;;0.80;;
75542;SDS011;64129;53.508;10.476;2022-12-29T14:33:28;3.00;;;0.80;;
75542;SDS011;64129;53.508;10.476;2022-12-29T14:41:16;3.63;;;1.00;;
75542;SDS011;64129;53.508;10.476;2022-12-29T14:44:22;2.80;;;0.90;;
75542;SDS011;64129;53.508;10.476;2022-12-29T14:46:57;2.78;;;0.98;;
75542;SDS011;64129;53.508;10.476;2022-12-29T14:49:30;4.05;;;0.85;;
75542;SDS011;64129;53.508;10.476;2022-12-29T14:52:16;3.15;;;0.80;;
75542;SDS011;64129;53.508;10.476;2022-12-29T14:54:50;3.40;;;0.95;;
75542;SDS011;64129;53.508;10.476;2022-12-29T14:57:30;4.18;;;1.02;;
75542;SDS011;64129;53.508;10.476;2022-12-29T15:00:02;2.88;;;1.27;;
75542;SDS011;64129;53.508;10.476;2022-12-29T15:03:36;5.10;;;1.63;;
75542;SDS011;64129;53.508;10.476;2022-12-29T15:05:54;4.88;;;1.63;;
75542;SDS011;64129;53.508;10.476;2022-12-29T15:08:25;4.20;;;1.52;;
75542;SDS011;64129;53.508;10.476;2022-12-29T15:11:12;2.78;;;1.17;;
75542;SDS011;64129;53.508;10.476;2022-12-29T15:13:42;2.67;;;0.77;;
75542;SDS011;64129;53.508;10.476;2022-12-29T15:18:48;3.25;;;1.20;;
75542;SDS011;64129;53.508;10.476;2022-12-29T15:21:15;1.65;;;1.00;;
75542;SDS011;64129;53.508;10.476;2022-12-29T15:23:43;3.40;;;1.00;;
75542;SDS011;64129;53.508;10.476;2022-12-29T15:26:11;2.15;;;1.10;;
75542;SDS011;64129;53.508;10.476;2022-12-29T15:28:42;2.38;;;0.80;;
75542;SDS011;64129;53.508;10.476;2022-12-29T15:31:11;3.70;;;1.10;;
75542;SDS011;64129;53.508;10.476;2022-12-29T15:33:42;2.58;;;0.98;;
75542;SDS011;64129;53.508;10.476;2022-12-29T15:36:23;1.88;;;0.90;;
75542;SDS011;64129;53.508;10.476;2022-12-29T15:38:51;3.97;;;0.98;;
75542;SDS011;64129;53.508;10.476;2022-12-29T15:41:22;5.47;;;1.23;;
75542;SDS011;64129;53.508;10.476;2022-12-29T15:49:44;3.10;;;1.20;;
75542;SDS011;64129;53.508;10.476;2022-12-29T15:52:19;4.55;;;1.33;;
75542;SDS011;64129;53.508;10.476;2022-12-29T15:54:50;7.00;;;1.63;;
75542;SDS011;64129;53.508;10.476;2022-12-29T15:57:25;4.85;;;1.40;;
75542;SDS011;64129;53.508;10.476;2022-12-29T15:59:53;3.50;;;1.10;;
75542;SDS011;64129;53.508;10.476;2022-12-29T16:02:23;2.15;;;1.10;;
75542;SDS011;64129;53.508;10.476;2022-12-29T16:04:51;1.67;;;0.80;;
75542;SDS011;64129;53.508;10.476;2022-12-29T16:07:38;4.95;;;1.23;;
75542;SDS011;64129;53.508;10.476;2022-12-29T16:10:21;3.63;;;0.98;;
75542;SDS011;64129;53.508;10.476;2022-12-29T16:13:42;4.68;;;1.25;;
75542;SDS011;64129;53.508;10.476;2022-12-29T16:18:24;2.22;;;1.33;;
75542;SDS011;64129;53.508;10.476;2022-12-29T16:20:55;2.47;;;1.25;;
75542;SDS011;64129;53.508;10.476;2022-12-29T16:23:24;2.05;;;1.05;;
75542;SDS011;64129;53.508;10.476;2022-12-29T16:25:52;3.95;;;1.20;;
75542;SDS011;64129;53.508;10.476;2022-12-29T16:33:53;2.42;;;1.10;;
75542;SDS011;64129;53.508;10.476;2022-12-29T16:36:21;8.20;;;1.63;;
75542;SDS011;64129;53.508;10.476;2022-12-29T16:38:48;4.32;;;1.20;;
75542;SDS011;64129;53.508;10.476;2022-12-29T16:41:30;3.75;;;1.25;;
75542;SDS011;64129;53.508;10.476;2022-12-29T16:46:58;3.10;;;1.23;;
75542;SDS011;64129;53.508;10.476;2022-12-29T16:49:29;6.25;;;2.08;;
75542;SDS011;64129;53.508;10.476;2022-12-29T16:51:57;3.97;;;1.30;;
75542;SDS011;64129;53.508;10.476;2022-12-29T16:54:24;3.45;;;1.52;;
75542;SDS011;64129;53.508;10.476;2022-12-29T16:56:57;5.00;;;1.70;;
75542;SDS011;64129;53.508;10.476;2022-12-29T16:59:31;3.42;;;1.48;;
75542;SDS011;64129;53.508;10.476;2022-12-29T17:02:00;3.00;;;2.08;;
75542;SDS011;64129;53.508;10.476;2022-12-29T17:04:32;3.70;;;1.17;;
75542;SDS011;64129;53.508;10.476;2022-12-29T17:06:59;4.22;;;1.77;;
75542;SDS011;64129;53.508;10.476;2022-12-29T17:09:26;4.55;;;2.03;;
75542;SDS011;64129;53.508;10.476;2022-12-29T17:11:55;4.35;;;2.05;;
75542;SDS011;64129;53.508;10.476;2022-12-29T17:14:44;4.72;;;2.15;;
75542;SDS011;64129;53.508;10.476;2022-12-29T17:17:17;3.50;;;2.03;;
75542;SDS011;64129;53.508;10.476;2022-12-29T17:19:48;5.65;;;2.20;;
75542;SDS011;64129;53.508;10.476;2022-12-29T17:22:19;3.63;;;1.92;;
75542;SDS011;64129;53.508;10.476;2022-12-29T17:24:51;6.50;;;2.10;;
75542;SDS011;64129;53.508;10.476;2022-12-29T17:29:47;4.25;;;1.38;;
75542;SDS011;64129;53.508;10.476;2022-12-29T17:32:15;5.18;;;1.80;;
75542;SDS011;64129;53.508;10.476;2022-12-29T17:34:41;2.75;;;1.30;;
75542;SDS011;64129;53.508;10.476;2022-12-29T17:37:51;4.35;;;1.95;;